sensor_id;sensor_type;location;lat;lon;timestamp;P1;durP1;ratioP1;P2;durP2;ratioP2
8893;SDS011;4483;48.622;9.230;2022-08-03T00:00:52;4.00;;;2.70;;
8893;SDS011;4483;48.622;9.230;2022-08-03T00:03:19;2.97;;;2.55;;
8893;SDS011;4483;48.622;9.230;2022-08-03T00:05:45;5.07;;;2.70;;
8893;SDS011;4483;48.622;9.230;2022-08-03T00:08:12;2.80;;;2.60;;
8893;SDS011;4483;48.622;9.230;2022-08-03T00:10:39;2.70;;;2.50;;
8893;SDS011;4483;48.622;9.230;2022-08-03T00:13:05;2.60;;;2.40;;
8893;SDS011;4483;48.622;9.230;2022-08-03T00:15:33;2.85;;;2.65;;
8893;SDS011;4483;48.622;9.230;2022-08-03T00:18:00;5.13;;;2.92;;
8893;SDS011;4483;48.622;9.230;2022-08-03T00:20:27;5.13;;;3.00;;
8893;SDS011;4483;48.622;9.230;2022-08-03T00:22:53;3.97;;;2.88;;
8893;SDS011;4483;48.622;9.230;2022-08-03T00:25:20;2.85;;;2.60;;
8893;SDS011;4483;48.622;9.230;2022-08-03T00:27:47;6.13;;;2.80;;
8893;SDS011;4483;48.622;9.230;2022-08-03T00:30:13;5.00;;;3.38;;
8893;SDS011;4483;48.622;9.230;2022-08-03T00:32:41;3.25;;;2.95;;
8893;SDS011;4483;48.622;9.230;2022-08-03T00:35:08;2.90;;;2.70;;
8893;SDS011;4483;48.622;9.230;2022-08-03T00:37:36;4.47;;;3.13;;
8893;SDS011;4483;48.622;9.230;2022-08-03T00:40:02;6.78;;;2.90;;
8893;SDS011;4483;48.622;9.230;2022-08-03T00:42:30;4.35;;;2.65;;
8893;SDS011;4483;48.622;9.230;2022-08-03T00:44:56;2.83;;;2.58;;
8893;SDS011;4483;48.622;9.230;2022-08-03T00:47:23;2.70;;;2.50;;
8893;SDS011;4483;48.622;9.230;2022-08-03T00:49:51;3.08;;;2.78;;
8893;SDS011;4483;48.622;9.230;2022-08-03T00:52:17;2.40;;;2.30;;
8893;SDS011;4483;48.622;9.230;2022-08-03T00:54:44;2.95;;;2.75;;
8893;SDS011;4483;48.622;9.230;2022-08-03T00:57:11;3.28;;;2.83;;
8893;SDS011;4483;48.622;9.230;2022-08-03T00:59:37;2.60;;;2.40;;
8893;SDS011;4483;48.622;9.230;2022-08-03T01:02:04;3.38;;;2.80;;
8893;SDS011;4483;48.622;9.230;2022-08-03T01:04:31;2.70;;;2.40;;
8893;SDS011;4483;48.622;9.230;2022-08-03T01:07:02;2.85;;;2.65;;
8893;SDS011;4483;48.622;9.230;2022-08-03T01:09:37;2.95;;;2.72;;
8893;SDS011;4483;48.622;9.230;2022-08-03T01:12:12;2.95;;;2.75;;
8893;SDS011;4483;48.622;9.230;2022-08-03T01:14:49;2.58;;;2.47;;
8893;SDS011;4483;48.622;9.230;2022-08-03T01:17:21;2.83;;;2.60;;
8893;SDS011;4483;48.622;9.230;2022-08-03T01:19:55;2.72;;;2.63;;
8893;SDS011;4483;48.622;9.230;2022-08-03T01:25:22;2.90;;;2.72;;
8893;SDS011;4483;48.622;9.230;2022-08-03T01:28:01;7.50;;;2.78;;
8893;SDS011;4483;48.622;9.230;2022-08-03T01:30:49;3.85;;;2.85;;
8893;SDS011;4483;48.622;9.230;2022-08-03T01:33:23;6.15;;;2.95;;
8893;SDS011;4483;48.622;9.230;2022-08-03T01:35:56;6.15;;;2.80;;
8893;SDS011;4483;48.622;9.230;2022-08-03T01:38:26;3.20;;;2.90;;
8893;SDS011;4483;48.622;9.230;2022-08-03T01:40:57;4.07;;;2.55;;
8893;SDS011;4483;48.622;9.230;2022-08-03T01:43:30;3.00;;;2.70;;
8893;SDS011;4483;48.622;9.230;2022-08-03T01:45:58;3.95;;;2.80;;
8893;SDS011;4483;48.622;9.230;2022-08-03T01:48:25;3.03;;;2.75;;
8893;SDS011;4483;48.622;9.230;2022-08-03T01:50:53;2.75;;;2.50;;
8893;SDS011;4483;48.622;9.230;2022-08-03T01:53:21;3.17;;;2.45;;
8893;SDS011;4483;48.622;9.230;2022-08-03T01:55:51;2.92;;;2.78;;
8893;SDS011;4483;48.622;9.230;2022-08-03T01:58:20;2.78;;;2.67;;
8893;SDS011;4483;48.622;9.230;2022-08-03T02:00:49;3.80;;;2.60;;
8893;SDS011;4483;48.622;9.230;2022-08-03T02:03:19;3.20;;;2.42;;
8893;SDS011;4483;48.622;9.230;2022-08-03T02:05:47;2.75;;;2.60;;
8893;SDS011;4483;48.622;9.230;2022-08-03T02:08:15;3.97;;;2.40;;
8893;SDS011;4483;48.622;9.230;2022-08-03T02:10:43;7.85;;;2.80;;
8893;SDS011;4483;48.622;9.230;2022-08-03T02:13:12;3.08;;;2.88;;
8893;SDS011;4483;48.622;9.230;2022-08-03T02:15:42;6.13;;;3.05;;
8893;SDS011;4483;48.622;9.230;2022-08-03T02:18:09;3.97;;;2.95;;
8893;SDS011;4483;48.622;9.230;2022-08-03T02:20:38;3.90;;;2.88;;
8893;SDS011;4483;48.622;9.230;2022-08-03T02:23:06;3.25;;;2.65;;
8893;SDS011;4483;48.622;9.230;2022-08-03T02:25:34;2.88;;;2.67;;
8893;SDS011;4483;48.622;9.230;2022-08-03T02:28:07;2.60;;;2.40;;
8893;SDS011;4483;48.622;9.230;2022-08-03T02:30:36;2.58;;;2.38;;
8893;SDS011;4483;48.622;9.230;2022-08-03T02:33:04;2.92;;;2.40;;
8893;SDS011;4483;48.622;9.230;2022-08-03T02:35:36;2.80;;;2.60;;
8893;SDS011;4483;48.622;9.230;2022-08-03T02:38:09;2.97;;;2.60;;
8893;SDS011;4483;48.622;9.230;2022-08-03T02:40:38;2.63;;;2.42;;
8893;SDS011;4483;48.622;9.230;2022-08-03T02:43:07;2.53;;;2.42;;
8893;SDS011;4483;48.622;9.230;2022-08-03T02:45:38;2.22;;;2.13;;
8893;SDS011;4483;48.622;9.230;2022-08-03T02:48:08;3.05;;;2.75;;
8893;SDS011;4483;48.622;9.230;2022-08-03T02:50:37;4.00;;;2.50;;
8893;SDS011;4483;48.622;9.230;2022-08-03T02:53:07;4.32;;;2.47;;
8893;SDS011;4483;48.622;9.230;2022-08-03T02:55:36;3.38;;;2.90;;
8893;SDS011;4483;48.622;9.230;2022-08-03T02:58:04;3.30;;;2.53;;
8893;SDS011;4483;48.622;9.230;2022-08-03T03:00:32;2.67;;;2.58;;
8893;SDS011;4483;48.622;9.230;2022-08-03T03:03:00;2.92;;;2.67;;
8893;SDS011;4483;48.622;9.230;2022-08-03T03:05:30;2.88;;;2.67;;
8893;SDS011;4483;48.622;9.230;2022-08-03T03:07:58;2.80;;;2.60;;
8893;SDS011;4483;48.622;9.230;2022-08-03T03:10:25;2.90;;;2.70;;
8893;SDS011;4483;48.622;9.230;2022-08-03T03:12:54;2.72;;;2.50;;
8893;SDS011;4483;48.622;9.230;2022-08-03T03:15:22;3.47;;;2.50;;
8893;SDS011;4483;48.622;9.230;2022-08-03T03:17:51;4.97;;;2.78;;
8893;SDS011;4483;48.622;9.230;2022-08-03T03:20:18;2.58;;;2.33;;
8893;SDS011;4483;48.622;9.230;2022-08-03T03:22:45;4.53;;;2.80;;
8893;SDS011;4483;48.622;9.230;2022-08-03T03:25:15;3.60;;;2.58;;
8893;SDS011;4483;48.622;9.230;2022-08-03T03:27:42;2.60;;;2.42;;
8893;SDS011;4483;48.622;9.230;2022-08-03T03:30:10;5.85;;;2.90;;
8893;SDS011;4483;48.622;9.230;2022-08-03T03:32:37;4.22;;;3.08;;
8893;SDS011;4483;48.622;9.230;2022-08-03T03:35:05;6.18;;;3.08;;
8893;SDS011;4483;48.622;9.230;2022-08-03T03:37:32;2.83;;;2.40;;
8893;SDS011;4483;48.622;9.230;2022-08-03T03:39:59;2.85;;;2.65;;
8893;SDS011;4483;48.622;9.230;2022-08-03T03:42:27;3.67;;;2.70;;
8893;SDS011;4483;48.622;9.230;2022-08-03T03:44:55;3.28;;;2.60;;
8893;SDS011;4483;48.622;9.230;2022-08-03T03:47:21;2.90;;;2.70;;
8893;SDS011;4483;48.622;9.230;2022-08-03T03:49:48;4.05;;;2.50;;
8893;SDS011;4483;48.622;9.230;2022-08-03T03:52:15;2.70;;;2.60;;
8893;SDS011;4483;48.622;9.230;2022-08-03T03:54:42;3.10;;;2.65;;
8893;SDS011;4483;48.622;9.230;2022-08-03T03:57:10;3.33;;;2.97;;
8893;SDS011;4483;48.622;9.230;2022-08-03T03:59:39;2.95;;;2.58;;
8893;SDS011;4483;48.622;9.230;2022-08-03T04:02:07;2.42;;;2.22;;
8893;SDS011;4483;48.622;9.230;2022-08-03T04:04:35;2.50;;;2.40;;
8893;SDS011;4483;48.622;9.230;2022-08-03T04:07:19;2.97;;;2.78;;
8893;SDS011;4483;48.622;9.230;2022-08-03T04:10:08;3.75;;;2.80;;
8893;SDS011;4483;48.622;9.230;2022-08-03T04:12:55;2.60;;;2.45;;
8893;SDS011;4483;48.622;9.230;2022-08-03T04:15:27;2.50;;;2.40;;
8893;SDS011;4483;48.622;9.230;2022-08-03T04:17:56;5.32;;;2.53;;
8893;SDS011;4483;48.622;9.230;2022-08-03T04:20:25;4.22;;;2.38;;
8893;SDS011;4483;48.622;9.230;2022-08-03T04:22:55;2.47;;;2.38;;
8893;SDS011;4483;48.622;9.230;2022-08-03T04:25:25;3.05;;;2.60;;
8893;SDS011;4483;48.622;9.230;2022-08-03T04:27:56;3.25;;;2.60;;
8893;SDS011;4483;48.622;9.230;2022-08-03T04:30:24;2.60;;;2.40;;
8893;SDS011;4483;48.622;9.230;2022-08-03T04:32:54;4.35;;;3.03;;
8893;SDS011;4483;48.622;9.230;2022-08-03T04:35:22;2.95;;;2.78;;
8893;SDS011;4483;48.622;9.230;2022-08-03T04:37:50;3.30;;;2.70;;
8893;SDS011;4483;48.622;9.230;2022-08-03T04:40:19;5.35;;;2.78;;
8893;SDS011;4483;48.622;9.230;2022-08-03T04:42:50;2.75;;;2.55;;
8893;SDS011;4483;48.622;9.230;2022-08-03T04:45:20;4.10;;;2.75;;
8893;SDS011;4483;48.622;9.230;2022-08-03T04:47:49;5.13;;;2.90;;
8893;SDS011;4483;48.622;9.230;2022-08-03T04:50:16;4.70;;;2.92;;
8893;SDS011;4483;48.622;9.230;2022-08-03T04:52:44;3.00;;;2.80;;
8893;SDS011;4483;48.622;9.230;2022-08-03T04:55:11;3.00;;;2.75;;
8893;SDS011;4483;48.622;9.230;2022-08-03T04:57:38;4.18;;;2.70;;
8893;SDS011;4483;48.622;9.230;2022-08-03T05:00:05;2.75;;;2.30;;
8893;SDS011;4483;48.622;9.230;2022-08-03T05:02:32;7.63;;;2.80;;
8893;SDS011;4483;48.622;9.230;2022-08-03T05:05:00;3.30;;;2.63;;
8893;SDS011;4483;48.622;9.230;2022-08-03T05:07:27;7.18;;;2.80;;
8893;SDS011;4483;48.622;9.230;2022-08-03T05:09:53;2.60;;;2.50;;
8893;SDS011;4483;48.622;9.230;2022-08-03T05:12:20;5.85;;;3.10;;
8893;SDS011;4483;48.622;9.230;2022-08-03T05:14:47;4.30;;;2.33;;
8893;SDS011;4483;48.622;9.230;2022-08-03T05:17:14;2.55;;;2.45;;
8893;SDS011;4483;48.622;9.230;2022-08-03T05:19:40;2.72;;;2.40;;
8893;SDS011;4483;48.622;9.230;2022-08-03T05:22:09;2.88;;;2.67;;
8893;SDS011;4483;48.622;9.230;2022-08-03T05:24:35;2.90;;;2.70;;
8893;SDS011;4483;48.622;9.230;2022-08-03T05:27:02;4.82;;;2.45;;
8893;SDS011;4483;48.622;9.230;2022-08-03T05:29:28;3.15;;;2.42;;
8893;SDS011;4483;48.622;9.230;2022-08-03T05:31:55;2.70;;;2.50;;
8893;SDS011;4483;48.622;9.230;2022-08-03T05:34:22;2.55;;;2.38;;
8893;SDS011;4483;48.622;9.230;2022-08-03T05:36:48;3.22;;;2.90;;
8893;SDS011;4483;48.622;9.230;2022-08-03T05:39:16;3.00;;;2.70;;
8893;SDS011;4483;48.622;9.230;2022-08-03T05:41:43;3.05;;;2.85;;
8893;SDS011;4483;48.622;9.230;2022-08-03T05:44:09;3.03;;;2.72;;
8893;SDS011;4483;48.622;9.230;2022-08-03T05:46:36;5.63;;;2.63;;
8893;SDS011;4483;48.622;9.230;2022-08-03T05:49:03;2.78;;;2.60;;
8893;SDS011;4483;48.622;9.230;2022-08-03T05:51:29;2.90;;;2.67;;
8893;SDS011;4483;48.622;9.230;2022-08-03T05:53:56;7.05;;;2.83;;
8893;SDS011;4483;48.622;9.230;2022-08-03T05:56:24;2.83;;;2.63;;
8893;SDS011;4483;48.622;9.230;2022-08-03T05:58:50;2.70;;;2.55;;
8893;SDS011;4483;48.622;9.230;2022-08-03T06:01:18;2.70;;;2.50;;
8893;SDS011;4483;48.622;9.230;2022-08-03T06:03:47;3.40;;;2.65;;
8893;SDS011;4483;48.622;9.230;2022-08-03T06:06:14;3.67;;;2.90;;
8893;SDS011;4483;48.622;9.230;2022-08-03T06:08:41;3.10;;;2.85;;
8893;SDS011;4483;48.622;9.230;2022-08-03T06:11:08;3.20;;;3.00;;
8893;SDS011;4483;48.622;9.230;2022-08-03T06:13:37;5.63;;;2.85;;
8893;SDS011;4483;48.622;9.230;2022-08-03T06:16:04;3.20;;;2.90;;
8893;SDS011;4483;48.622;9.230;2022-08-03T06:18:31;3.10;;;2.90;;
8893;SDS011;4483;48.622;9.230;2022-08-03T06:20:57;3.95;;;3.15;;
8893;SDS011;4483;48.622;9.230;2022-08-03T06:23:24;4.97;;;2.85;;
8893;SDS011;4483;48.622;9.230;2022-08-03T06:25:51;3.58;;;3.30;;
8893;SDS011;4483;48.622;9.230;2022-08-03T06:28:17;3.30;;;3.00;;
8893;SDS011;4483;48.622;9.230;2022-08-03T06:30:45;3.10;;;2.80;;
8893;SDS011;4483;48.622;9.230;2022-08-03T06:33:12;3.85;;;2.92;;
8893;SDS011;4483;48.622;9.230;2022-08-03T06:35:39;3.15;;;2.88;;
8893;SDS011;4483;48.622;9.230;2022-08-03T06:38:05;3.78;;;2.75;;
8893;SDS011;4483;48.622;9.230;2022-08-03T06:40:34;3.25;;;2.95;;
8893;SDS011;4483;48.622;9.230;2022-08-03T06:43:04;3.50;;;3.20;;
8893;SDS011;4483;48.622;9.230;2022-08-03T06:45:31;3.88;;;2.83;;
8893;SDS011;4483;48.622;9.230;2022-08-03T06:48:00;3.75;;;3.55;;
8893;SDS011;4483;48.622;9.230;2022-08-03T06:50:30;4.90;;;3.20;;
8893;SDS011;4483;48.622;9.230;2022-08-03T06:52:57;6.25;;;3.53;;
8893;SDS011;4483;48.622;9.230;2022-08-03T06:55:24;5.18;;;3.40;;
8893;SDS011;4483;48.622;9.230;2022-08-03T06:57:51;5.40;;;3.30;;
8893;SDS011;4483;48.622;9.230;2022-08-03T07:00:18;6.28;;;3.30;;
8893;SDS011;4483;48.622;9.230;2022-08-03T07:02:45;3.67;;;3.40;;
8893;SDS011;4483;48.622;9.230;2022-08-03T07:05:14;3.72;;;3.40;;
8893;SDS011;4483;48.622;9.230;2022-08-03T07:07:41;3.50;;;3.20;;
8893;SDS011;4483;48.622;9.230;2022-08-03T07:10:08;3.40;;;3.20;;
8893;SDS011;4483;48.622;9.230;2022-08-03T07:12:37;4.72;;;3.05;;
8893;SDS011;4483;48.622;9.230;2022-08-03T07:15:04;3.53;;;3.08;;
8893;SDS011;4483;48.622;9.230;2022-08-03T07:17:32;3.50;;;3.30;;
8893;SDS011;4483;48.622;9.230;2022-08-03T07:20:01;5.30;;;3.03;;
8893;SDS011;4483;48.622;9.230;2022-08-03T07:22:30;3.58;;;3.30;;
8893;SDS011;4483;48.622;9.230;2022-08-03T07:24:57;3.72;;;3.42;;
8893;SDS011;4483;48.622;9.230;2022-08-03T07:27:24;3.40;;;3.00;;
8893;SDS011;4483;48.622;9.230;2022-08-03T07:29:52;5.57;;;3.20;;
8893;SDS011;4483;48.622;9.230;2022-08-03T07:32:19;3.95;;;3.05;;
8893;SDS011;4483;48.622;9.230;2022-08-03T07:34:45;4.80;;;3.60;;
8893;SDS011;4483;48.622;9.230;2022-08-03T07:37:12;4.35;;;3.20;;
8893;SDS011;4483;48.622;9.230;2022-08-03T07:39:40;3.78;;;2.72;;
8893;SDS011;4483;48.622;9.230;2022-08-03T07:42:07;3.17;;;2.97;;
8893;SDS011;4483;48.622;9.230;2022-08-03T07:44:33;3.13;;;2.92;;
8893;SDS011;4483;48.622;9.230;2022-08-03T07:47:00;3.75;;;2.88;;
8893;SDS011;4483;48.622;9.230;2022-08-03T07:49:27;3.67;;;3.20;;
8893;SDS011;4483;48.622;9.230;2022-08-03T07:51:53;5.07;;;3.13;;
8893;SDS011;4483;48.622;9.230;2022-08-03T07:54:34;3.30;;;2.85;;
8893;SDS011;4483;48.622;9.230;2022-08-03T07:57:02;2.85;;;2.60;;
8893;SDS011;4483;48.622;9.230;2022-08-03T07:59:28;4.90;;;2.83;;
8893;SDS011;4483;48.622;9.230;2022-08-03T08:01:55;3.13;;;2.88;;
8893;SDS011;4483;48.622;9.230;2022-08-03T08:04:22;2.50;;;2.40;;
8893;SDS011;4483;48.622;9.230;2022-08-03T08:06:48;5.05;;;2.90;;
8893;SDS011;4483;48.622;9.230;2022-08-03T08:09:15;2.72;;;2.53;;
8893;SDS011;4483;48.622;9.230;2022-08-03T08:11:42;5.00;;;3.08;;
8893;SDS011;4483;48.622;9.230;2022-08-03T08:14:10;3.10;;;2.88;;
8893;SDS011;4483;48.622;9.230;2022-08-03T08:16:36;2.83;;;2.60;;
8893;SDS011;4483;48.622;9.230;2022-08-03T08:19:03;2.85;;;2.65;;
8893;SDS011;4483;48.622;9.230;2022-08-03T08:21:30;3.47;;;2.75;;
8893;SDS011;4483;48.622;9.230;2022-08-03T08:23:56;2.75;;;2.50;;
8893;SDS011;4483;48.622;9.230;2022-08-03T08:26:24;3.03;;;2.30;;
8893;SDS011;4483;48.622;9.230;2022-08-03T08:28:50;2.80;;;2.50;;
8893;SDS011;4483;48.622;9.230;2022-08-03T08:31:18;4.57;;;2.45;;
8893;SDS011;4483;48.622;9.230;2022-08-03T08:33:45;2.63;;;2.42;;
8893;SDS011;4483;48.622;9.230;2022-08-03T08:36:12;3.72;;;2.10;;
8893;SDS011;4483;48.622;9.230;2022-08-03T08:38:38;2.60;;;2.50;;
8893;SDS011;4483;48.622;9.230;2022-08-03T08:41:06;3.00;;;2.63;;
8893;SDS011;4483;48.622;9.230;2022-08-03T08:43:33;2.20;;;2.10;;
8893;SDS011;4483;48.622;9.230;2022-08-03T08:46:00;2.17;;;2.08;;
8893;SDS011;4483;48.622;9.230;2022-08-03T08:48:29;4.63;;;2.13;;
8893;SDS011;4483;48.622;9.230;2022-08-03T08:50:56;3.08;;;2.45;;
8893;SDS011;4483;48.622;9.230;2022-08-03T08:53:23;2.83;;;1.92;;
8893;SDS011;4483;48.622;9.230;2022-08-03T08:55:53;2.03;;;1.92;;
8893;SDS011;4483;48.622;9.230;2022-08-03T08:58:23;4.75;;;2.05;;
8893;SDS011;4483;48.622;9.230;2022-08-03T09:00:53;1.90;;;1.80;;
8893;SDS011;4483;48.622;9.230;2022-08-03T09:03:20;2.05;;;1.60;;
8893;SDS011;4483;48.622;9.230;2022-08-03T09:05:48;1.80;;;1.48;;
8893;SDS011;4483;48.622;9.230;2022-08-03T09:08:15;1.77;;;1.65;;
8893;SDS011;4483;48.622;9.230;2022-08-03T09:10:42;2.13;;;1.90;;
8893;SDS011;4483;48.622;9.230;2022-08-03T09:13:09;3.30;;;1.58;;
8893;SDS011;4483;48.622;9.230;2022-08-03T09:15:35;1.55;;;1.45;;
8893;SDS011;4483;48.622;9.230;2022-08-03T09:18:03;1.58;;;1.58;;
8893;SDS011;4483;48.622;9.230;2022-08-03T09:20:31;1.77;;;1.67;;
8893;SDS011;4483;48.622;9.230;2022-08-03T09:23:02;1.77;;;1.67;;
8893;SDS011;4483;48.622;9.230;2022-08-03T09:25:33;1.70;;;1.60;;
8893;SDS011;4483;48.622;9.230;2022-08-03T09:28:07;1.77;;;1.63;;
8893;SDS011;4483;48.622;9.230;2022-08-03T09:30:36;4.90;;;2.53;;
8893;SDS011;4483;48.622;9.230;2022-08-03T09:33:05;1.88;;;1.65;;
8893;SDS011;4483;48.622;9.230;2022-08-03T09:35:38;1.30;;;1.30;;
8893;SDS011;4483;48.622;9.230;2022-08-03T09:38:11;1.52;;;1.42;;
8893;SDS011;4483;48.622;9.230;2022-08-03T09:40:39;3.03;;;1.40;;
8893;SDS011;4483;48.622;9.230;2022-08-03T09:43:06;1.63;;;1.63;;
8893;SDS011;4483;48.622;9.230;2022-08-03T09:45:33;1.40;;;1.40;;
8893;SDS011;4483;48.622;9.230;2022-08-03T09:48:19;2.25;;;1.60;;
8893;SDS011;4483;48.622;9.230;2022-08-03T09:50:47;1.55;;;1.50;;
8893;SDS011;4483;48.622;9.230;2022-08-03T09:53:17;4.13;;;1.40;;
8893;SDS011;4483;48.622;9.230;2022-08-03T09:55:50;1.60;;;1.50;;
8893;SDS011;4483;48.622;9.230;2022-08-03T09:58:19;1.48;;;1.48;;
8893;SDS011;4483;48.622;9.230;2022-08-03T10:00:56;1.85;;;1.38;;
8893;SDS011;4483;48.622;9.230;2022-08-03T10:03:24;1.40;;;1.40;;
8893;SDS011;4483;48.622;9.230;2022-08-03T10:05:52;1.30;;;1.30;;
8893;SDS011;4483;48.622;9.230;2022-08-03T10:08:20;2.35;;;1.50;;
8893;SDS011;4483;48.622;9.230;2022-08-03T10:10:48;6.15;;;1.27;;
8893;SDS011;4483;48.622;9.230;2022-08-03T10:13:18;1.55;;;1.45;;
8893;SDS011;4483;48.622;9.230;2022-08-03T10:15:46;2.80;;;1.40;;
8893;SDS011;4483;48.622;9.230;2022-08-03T10:18:13;1.60;;;1.50;;
8893;SDS011;4483;48.622;9.230;2022-08-03T10:20:42;1.70;;;1.60;;
8893;SDS011;4483;48.622;9.230;2022-08-03T10:23:11;2.42;;;1.63;;
8893;SDS011;4483;48.622;9.230;2022-08-03T10:25:41;1.65;;;1.60;;
8893;SDS011;4483;48.622;9.230;2022-08-03T10:28:09;2.53;;;1.50;;
8893;SDS011;4483;48.622;9.230;2022-08-03T10:30:40;1.40;;;1.40;;
8893;SDS011;4483;48.622;9.230;2022-08-03T10:33:12;1.73;;;1.63;;
8893;SDS011;4483;48.622;9.230;2022-08-03T10:35:42;1.77;;;1.60;;
8893;SDS011;4483;48.622;9.230;2022-08-03T10:38:15;1.80;;;1.70;;
8893;SDS011;4483;48.622;9.230;2022-08-03T10:40:45;2.67;;;1.55;;
8893;SDS011;4483;48.622;9.230;2022-08-03T10:43:17;3.67;;;1.80;;
8893;SDS011;4483;48.622;9.230;2022-08-03T10:45:45;2.85;;;1.75;;
8893;SDS011;4483;48.622;9.230;2022-08-03T10:48:12;1.80;;;1.70;;
8893;SDS011;4483;48.622;9.230;2022-08-03T10:50:39;1.92;;;1.77;;
8893;SDS011;4483;48.622;9.230;2022-08-03T10:53:08;1.98;;;1.77;;
8893;SDS011;4483;48.622;9.230;2022-08-03T10:55:35;3.00;;;1.60;;
8893;SDS011;4483;48.622;9.230;2022-08-03T11:01:15;1.70;;;1.60;;
8893;SDS011;4483;48.622;9.230;2022-08-03T11:06:42;1.52;;;1.50;;
8893;SDS011;4483;48.622;9.230;2022-08-03T11:09:13;1.42;;;1.40;;
8893;SDS011;4483;48.622;9.230;2022-08-03T11:11:42;1.52;;;1.42;;
8893;SDS011;4483;48.622;9.230;2022-08-03T11:14:12;7.22;;;1.40;;
8893;SDS011;4483;48.622;9.230;2022-08-03T11:16:40;1.73;;;1.35;;
8893;SDS011;4483;48.622;9.230;2022-08-03T11:19:09;2.22;;;1.80;;
8893;SDS011;4483;48.622;9.230;2022-08-03T11:21:56;1.50;;;1.38;;
8893;SDS011;4483;48.622;9.230;2022-08-03T11:27:22;1.25;;;1.25;;
8893;SDS011;4483;48.622;9.230;2022-08-03T11:29:55;1.40;;;1.40;;
8893;SDS011;4483;48.622;9.230;2022-08-03T11:35:22;2.58;;;1.60;;
8893;SDS011;4483;48.622;9.230;2022-08-03T11:40:37;1.70;;;1.60;;
8893;SDS011;4483;48.622;9.230;2022-08-03T11:43:06;1.50;;;1.40;;
8893;SDS011;4483;48.622;9.230;2022-08-03T11:45:36;1.70;;;1.60;;
8893;SDS011;4483;48.622;9.230;2022-08-03T11:48:12;1.60;;;1.60;;
8893;SDS011;4483;48.622;9.230;2022-08-03T11:50:40;1.77;;;1.63;;
8893;SDS011;4483;48.622;9.230;2022-08-03T11:53:11;1.55;;;1.55;;
8893;SDS011;4483;48.622;9.230;2022-08-03T11:55:40;1.50;;;1.40;;
8893;SDS011;4483;48.622;9.230;2022-08-03T11:58:13;1.75;;;1.65;;
8893;SDS011;4483;48.622;9.230;2022-08-03T12:00:42;1.40;;;1.40;;
8893;SDS011;4483;48.622;9.230;2022-08-03T12:03:09;1.48;;;1.48;;
8893;SDS011;4483;48.622;9.230;2022-08-03T12:05:45;1.95;;;1.48;;
8893;SDS011;4483;48.622;9.230;2022-08-03T12:08:14;1.98;;;1.88;;
8893;SDS011;4483;48.622;9.230;2022-08-03T12:10:46;2.83;;;1.80;;
8893;SDS011;4483;48.622;9.230;2022-08-03T12:13:14;1.50;;;1.50;;
8893;SDS011;4483;48.622;9.230;2022-08-03T12:15:43;1.35;;;1.35;;
8893;SDS011;4483;48.622;9.230;2022-08-03T12:18:17;1.98;;;1.40;;
8893;SDS011;4483;48.622;9.230;2022-08-03T12:20:46;1.70;;;1.70;;
8893;SDS011;4483;48.622;9.230;2022-08-03T12:23:13;2.20;;;2.03;;
8893;SDS011;4483;48.622;9.230;2022-08-03T12:25:41;1.80;;;1.70;;
8893;SDS011;4483;48.622;9.230;2022-08-03T12:28:13;5.22;;;1.77;;
8893;SDS011;4483;48.622;9.230;2022-08-03T12:30:45;2.20;;;1.90;;
8893;SDS011;4483;48.622;9.230;2022-08-03T12:33:13;1.65;;;1.60;;
8893;SDS011;4483;48.622;9.230;2022-08-03T12:35:45;2.03;;;1.80;;
8893;SDS011;4483;48.622;9.230;2022-08-03T12:38:17;3.03;;;1.73;;
8893;SDS011;4483;48.622;9.230;2022-08-03T12:40:53;1.65;;;1.45;;
8893;SDS011;4483;48.622;9.230;2022-08-03T12:43:25;2.25;;;1.70;;
8893;SDS011;4483;48.622;9.230;2022-08-03T12:46:06;1.88;;;1.77;;
8893;SDS011;4483;48.622;9.230;2022-08-03T12:51:30;1.75;;;1.50;;
8893;SDS011;4483;48.622;9.230;2022-08-03T12:53:58;2.10;;;1.67;;
8893;SDS011;4483;48.622;9.230;2022-08-03T12:56:26;1.55;;;1.55;;
8893;SDS011;4483;48.622;9.230;2022-08-03T12:58:53;2.13;;;1.60;;
8893;SDS011;4483;48.622;9.230;2022-08-03T13:01:21;2.85;;;1.83;;
8893;SDS011;4483;48.622;9.230;2022-08-03T13:03:50;1.83;;;1.50;;
8893;SDS011;4483;48.622;9.230;2022-08-03T13:06:18;1.73;;;1.70;;
8893;SDS011;4483;48.622;9.230;2022-08-03T13:08:46;1.88;;;1.55;;
8893;SDS011;4483;48.622;9.230;2022-08-03T13:11:19;1.75;;;1.65;;
8893;SDS011;4483;48.622;9.230;2022-08-03T13:13:47;1.85;;;1.75;;
8893;SDS011;4483;48.622;9.230;2022-08-03T13:16:13;3.17;;;1.65;;
8893;SDS011;4483;48.622;9.230;2022-08-03T13:18:41;2.50;;;1.70;;
8893;SDS011;4483;48.622;9.230;2022-08-03T13:21:10;1.80;;;1.70;;
8893;SDS011;4483;48.622;9.230;2022-08-03T13:23:38;4.63;;;1.80;;
8893;SDS011;4483;48.622;9.230;2022-08-03T13:26:04;1.45;;;1.45;;
8893;SDS011;4483;48.622;9.230;2022-08-03T13:28:31;1.65;;;1.55;;
8893;SDS011;4483;48.622;9.230;2022-08-03T13:30:58;1.50;;;1.50;;
8893;SDS011;4483;48.622;9.230;2022-08-03T13:33:25;1.80;;;1.70;;
8893;SDS011;4483;48.622;9.230;2022-08-03T13:35:54;1.50;;;1.50;;
8893;SDS011;4483;48.622;9.230;2022-08-03T13:38:21;3.30;;;1.80;;
8893;SDS011;4483;48.622;9.230;2022-08-03T13:40:47;1.50;;;1.50;;
8893;SDS011;4483;48.622;9.230;2022-08-03T13:43:16;1.27;;;1.27;;
8893;SDS011;4483;48.622;9.230;2022-08-03T13:45:42;1.58;;;1.58;;
8893;SDS011;4483;48.622;9.230;2022-08-03T13:48:09;1.60;;;1.50;;
8893;SDS011;4483;48.622;9.230;2022-08-03T13:50:36;1.70;;;1.60;;
8893;SDS011;4483;48.622;9.230;2022-08-03T13:53:04;1.52;;;1.52;;
8893;SDS011;4483;48.622;9.230;2022-08-03T13:55:30;2.80;;;1.50;;
8893;SDS011;4483;48.622;9.230;2022-08-03T13:57:57;1.60;;;1.50;;
8893;SDS011;4483;48.622;9.230;2022-08-03T14:00:24;1.80;;;1.70;;
8893;SDS011;4483;48.622;9.230;2022-08-03T14:02:51;1.40;;;1.40;;
8893;SDS011;4483;48.622;9.230;2022-08-03T14:05:17;2.63;;;1.40;;
8893;SDS011;4483;48.622;9.230;2022-08-03T14:07:44;1.60;;;1.58;;
8893;SDS011;4483;48.622;9.230;2022-08-03T14:10:13;1.63;;;1.52;;
8893;SDS011;4483;48.622;9.230;2022-08-03T14:12:41;1.85;;;1.73;;
8893;SDS011;4483;48.622;9.230;2022-08-03T14:15:08;1.58;;;1.48;;
8893;SDS011;4483;48.622;9.230;2022-08-03T14:17:37;3.70;;;1.50;;
8893;SDS011;4483;48.622;9.230;2022-08-03T14:20:04;1.70;;;1.60;;
8893;SDS011;4483;48.622;9.230;2022-08-03T14:22:31;3.42;;;1.70;;
8893;SDS011;4483;48.622;9.230;2022-08-03T14:24:58;1.63;;;1.60;;
8893;SDS011;4483;48.622;9.230;2022-08-03T14:27:26;1.92;;;1.60;;
8893;SDS011;4483;48.622;9.230;2022-08-03T14:29:53;2.88;;;1.50;;
8893;SDS011;4483;48.622;9.230;2022-08-03T14:32:23;1.63;;;1.52;;
8893;SDS011;4483;48.622;9.230;2022-08-03T14:34:50;1.48;;;1.48;;
8893;SDS011;4483;48.622;9.230;2022-08-03T14:37:17;2.20;;;1.50;;
8893;SDS011;4483;48.622;9.230;2022-08-03T14:39:43;1.50;;;1.40;;
8893;SDS011;4483;48.622;9.230;2022-08-03T14:42:12;1.70;;;1.60;;
8893;SDS011;4483;48.622;9.230;2022-08-03T14:44:40;1.45;;;1.45;;
8893;SDS011;4483;48.622;9.230;2022-08-03T14:47:07;1.60;;;1.60;;
8893;SDS011;4483;48.622;9.230;2022-08-03T14:49:34;1.60;;;1.50;;
8893;SDS011;4483;48.622;9.230;2022-08-03T14:52:00;1.48;;;1.40;;
8893;SDS011;4483;48.622;9.230;2022-08-03T14:54:27;1.50;;;1.50;;
8893;SDS011;4483;48.622;9.230;2022-08-03T14:56:55;1.58;;;1.58;;
8893;SDS011;4483;48.622;9.230;2022-08-03T14:59:22;1.80;;;1.70;;
8893;SDS011;4483;48.622;9.230;2022-08-03T15:01:51;3.88;;;1.60;;
8893;SDS011;4483;48.622;9.230;2022-08-03T15:04:17;1.50;;;1.40;;
8893;SDS011;4483;48.622;9.230;2022-08-03T15:06:44;1.45;;;1.45;;
8893;SDS011;4483;48.622;9.230;2022-08-03T15:09:10;1.73;;;1.70;;
8893;SDS011;4483;48.622;9.230;2022-08-03T15:11:37;1.58;;;1.58;;
8893;SDS011;4483;48.622;9.230;2022-08-03T15:14:04;1.67;;;1.58;;
8893;SDS011;4483;48.622;9.230;2022-08-03T15:16:31;1.40;;;1.40;;
8893;SDS011;4483;48.622;9.230;2022-08-03T15:18:59;1.90;;;1.80;;
8893;SDS011;4483;48.622;9.230;2022-08-03T15:21:25;4.88;;;1.90;;
8893;SDS011;4483;48.622;9.230;2022-08-03T15:23:52;1.85;;;1.75;;
8893;SDS011;4483;48.622;9.230;2022-08-03T15:26:18;2.85;;;1.67;;
8893;SDS011;4483;48.622;9.230;2022-08-03T15:28:45;3.38;;;1.45;;
8893;SDS011;4483;48.622;9.230;2022-08-03T15:31:12;2.35;;;1.65;;
8893;SDS011;4483;48.622;9.230;2022-08-03T15:33:38;3.80;;;1.60;;
8893;SDS011;4483;48.622;9.230;2022-08-03T15:36:06;1.83;;;1.73;;
8893;SDS011;4483;48.622;9.230;2022-08-03T15:38:33;3.33;;;1.50;;
8893;SDS011;4483;48.622;9.230;2022-08-03T15:41:00;2.50;;;1.73;;
8893;SDS011;4483;48.622;9.230;2022-08-03T15:43:26;1.95;;;1.70;;